sensor_id;sensor_type;location;lat;lon;timestamp;temperature;humidity
1778;DHT22;886;50.082;8.222;2023-01-08T00:01:42;8.80;99.90
1778;DHT22;886;50.082;8.222;2023-01-08T00:04:12;8.90;99.90
1778;DHT22;886;50.082;8.222;2023-01-08T00:06:42;8.90;99.90
1778;DHT22;886;50.082;8.222;2023-01-08T00:09:09;8.90;99.90
1778;DHT22;886;50.082;8.222;2023-01-08T00:11:39;8.90;99.90
1778;DHT22;886;50.082;8.222;2023-01-08T00:14:08;9.00;99.90
1778;DHT22;886;50.082;8.222;2023-01-08T00:16:38;9.00;99.90
1778;DHT22;886;50.082;8.222;2023-01-08T00:19:06;9.00;99.90
1778;DHT22;886;50.082;8.222;2023-01-08T00:21:33;8.90;99.90
1778;DHT22;886;50.082;8.222;2023-01-08T00:24:00;9.00;99.90
1778;DHT22;886;50.082;8.222;2023-01-08T00:26:27;9.00;99.90
1778;DHT22;886;50.082;8.222;2023-01-08T00:28:55;9.00;99.90
1778;DHT22;886;50.082;8.222;2023-01-08T00:31:26;9.00;99.90
1778;DHT22;886;50.082;8.222;2023-01-08T00:33:53;9.10;99.90
1778;DHT22;886;50.082;8.222;2023-01-08T00:36:26;9.20;99.90
1778;DHT22;886;50.082;8.222;2023-01-08T00:38:58;9.10;99.90
1778;DHT22;886;50.082;8.222;2023-01-08T00:41:28;9.10;99.90
1778;DHT22;886;50.082;8.222;2023-01-08T00:43:55;8.90;99.90
1778;DHT22;886;50.082;8.222;2023-01-08T00:46:22;8.90;99.90
1778;DHT22;886;50.082;8.222;2023-01-08T00:48:51;8.90;99.90
1778;DHT22;886;50.082;8.222;2023-01-08T00:51:27;8.80;99.90
1778;DHT22;886;50.082;8.222;2023-01-08T00:53:54;8.80;99.90
1778;DHT22;886;50.082;8.222;2023-01-08T00:56:24;8.80;99.90
1778;DHT22;886;50.082;8.222;2023-01-08T00:58:55;8.80;99.90
1778;DHT22;886;50.082;8.222;2023-01-08T01:01:22;8.90;99.90
1778;DHT22;886;50.082;8.222;2023-01-08T01:03:54;8.90;99.90
1778;DHT22;886;50.082;8.222;2023-01-08T01:06:25;9.00;99.90
1778;DHT22;886;50.082;8.222;2023-01-08T01:08:58;8.90;99.90
1778;DHT22;886;50.082;8.222;2023-01-08T01:11:27;8.90;99.90
1778;DHT22;886;50.082;8.222;2023-01-08T01:13:57;9.00;99.90
1778;DHT22;886;50.082;8.222;2023-01-08T01:16:24;9.00;99.90
1778;DHT22;886;50.082;8.222;2023-01-08T01:18:58;9.10;99.90
1778;DHT22;886;50.082;8.222;2023-01-08T01:21:27;9.10;99.90
1778;DHT22;886;50.082;8.222;2023-01-08T01:23:57;9.10;99.90
1778;DHT22;886;50.082;8.222;2023-01-08T01:26:26;9.20;99.90
1778;DHT22;886;50.082;8.222;2023-01-08T01:29:00;9.20;99.90
1778;DHT22;886;50.082;8.222;2023-01-08T01:31:34;9.20;99.90
1778;DHT22;886;50.082;8.222;2023-01-08T01:34:05;9.20;99.90
1778;DHT22;886;50.082;8.222;2023-01-08T01:36:36;9.30;99.90
1778;DHT22;886;50.082;8.222;2023-01-08T01:39:06;9.30;99.90
1778;DHT22;886;50.082;8.222;2023-01-08T01:41:37;9.30;99.90
1778;DHT22;886;50.082;8.222;2023-01-08T01:44:35;9.30;99.90
1778;DHT22;886;50.082;8.222;2023-01-08T01:47:12;9.30;99.90
1778;DHT22;886;50.082;8.222;2023-01-08T01:49:52;9.40;99.90
1778;DHT22;886;50.082;8.222;2023-01-08T01:52:21;9.50;99.90
1778;DHT22;886;50.082;8.222;2023-01-08T01:54:49;9.40;99.90
1778;DHT22;886;50.082;8.222;2023-01-08T01:57:17;9.40;99.90
1778;DHT22;886;50.082;8.222;2023-01-08T01:59:47;9.30;99.90
1778;DHT22;886;50.082;8.222;2023-01-08T02:02:14;9.30;99.90
1778;DHT22;886;50.082;8.222;2023-01-08T02:04:43;9.20;99.90
1778;DHT22;886;50.082;8.222;2023-01-08T02:07:15;9.10;99.90
1778;DHT22;886;50.082;8.222;2023-01-08T02:09:52;9.20;99.90
1778;DHT22;886;50.082;8.222;2023-01-08T02:12:25;9.20;99.90
1778;DHT22;886;50.082;8.222;2023-01-08T02:15:04;9.20;99.90
1778;DHT22;886;50.082;8.222;2023-01-08T02:17:42;9.20;99.90
1778;DHT22;886;50.082;8.222;2023-01-08T02:20:19;9.20;99.90
1778;DHT22;886;50.082;8.222;2023-01-08T02:23:01;9.20;99.90
1778;DHT22;886;50.082;8.222;2023-01-08T02:26:16;9.20;99.90
1778;DHT22;886;50.082;8.222;2023-01-08T02:28:53;9.00;99.90
1778;DHT22;886;50.082;8.222;2023-01-08T02:31:24;9.00;99.90
1778;DHT22;886;50.082;8.222;2023-01-08T02:33:52;9.10;99.90
1778;DHT22;886;50.082;8.222;2023-01-08T02:36:35;9.10;99.90
1778;DHT22;886;50.082;8.222;2023-01-08T02:42:19;9.00;99.90
1778;DHT22;886;50.082;8.222;2023-01-08T02:45:05;9.10;99.90
1778;DHT22;886;50.082;8.222;2023-01-08T02:47:41;9.10;99.90
1778;DHT22;886;50.082;8.222;2023-01-08T02:50:20;9.10;99.90
1778;DHT22;886;50.082;8.222;2023-01-08T02:52:55;9.20;99.90
1778;DHT22;886;50.082;8.222;2023-01-08T02:55:29;9.10;99.90
1778;DHT22;886;50.082;8.222;2023-01-08T02:57:59;9.10;99.90
1778;DHT22;886;50.082;8.222;2023-01-08T03:00:26;9.10;99.90
1778;DHT22;886;50.082;8.222;2023-01-08T03:03:02;9.20;99.90
1778;DHT22;886;50.082;8.222;2023-01-08T03:05:32;9.20;99.90
1778;DHT22;886;50.082;8.222;2023-01-08T03:08:01;9.20;99.90
1778;DHT22;886;50.082;8.222;2023-01-08T03:10:29;9.20;99.90
1778;DHT22;886;50.082;8.222;2023-01-08T03:13:00;9.20;99.90
1778;DHT22;886;50.082;8.222;2023-01-08T03:15:32;9.20;99.90
1778;DHT22;886;50.082;8.222;2023-01-08T03:18:06;9.20;99.90
1778;DHT22;886;50.082;8.222;2023-01-08T03:20:40;9.20;99.90
1778;DHT22;886;50.082;8.222;2023-01-08T03:23:09;9.20;99.90
1778;DHT22;886;50.082;8.222;2023-01-08T03:25:42;9.30;99.90
1778;DHT22;886;50.082;8.222;2023-01-08T03:28:21;9.20;99.90
1778;DHT22;886;50.082;8.222;2023-01-08T03:30:51;9.20;99.90
1778;DHT22;886;50.082;8.222;2023-01-08T03:33:20;9.10;99.90
1778;DHT22;886;50.082;8.222;2023-01-08T03:35:50;9.10;99.90
1778;DHT22;886;50.082;8.222;2023-01-08T03:38:31;9.10;99.90
1778;DHT22;886;50.082;8.222;2023-01-08T03:41:04;9.10;99.90
1778;DHT22;886;50.082;8.222;2023-01-08T03:43:38;9.00;99.90
1778;DHT22;886;50.082;8.222;2023-01-08T03:46:17;9.10;99.90
1778;DHT22;886;50.082;8.222;2023-01-08T03:48:50;9.10;99.90
1778;DHT22;886;50.082;8.222;2023-01-08T03:51:20;9.10;99.90
1778;DHT22;886;50.082;8.222;2023-01-08T03:54:06;9.10;99.90
1778;DHT22;886;50.082;8.222;2023-01-08T03:56:35;9.30;99.90
1778;DHT22;886;50.082;8.222;2023-01-08T03:59:06;9.40;99.90
1778;DHT22;886;50.082;8.222;2023-01-08T04:01:37;9.40;99.90
1778;DHT22;886;50.082;8.222;2023-01-08T04:04:10;9.50;99.90
1778;DHT22;886;50.082;8.222;2023-01-08T04:06:40;9.50;99.90
1778;DHT22;886;50.082;8.222;2023-01-08T04:09:08;9.60;99.90
1778;DHT22;886;50.082;8.222;2023-01-08T04:11:38;9.60;99.90
1778;DHT22;886;50.082;8.222;2023-01-08T04:14:06;9.50;99.90
1778;DHT22;886;50.082;8.222;2023-01-08T04:16:33;9.50;99.90
1778;DHT22;886;50.082;8.222;2023-01-08T04:19:01;9.50;99.90
1778;DHT22;886;50.082;8.222;2023-01-08T04:21:30;9.50;99.90
1778;DHT22;886;50.082;8.222;2023-01-08T04:23:58;9.50;99.90
1778;DHT22;886;50.082;8.222;2023-01-08T04:26:25;9.60;99.90
1778;DHT22;886;50.082;8.222;2023-01-08T04:28:52;9.60;99.90
1778;DHT22;886;50.082;8.222;2023-01-08T04:31:21;9.60;99.90
1778;DHT22;886;50.082;8.222;2023-01-08T04:33:58;9.50;99.90
1778;DHT22;886;50.082;8.222;2023-01-08T04:36:31;9.60;99.90
1778;DHT22;886;50.082;8.222;2023-01-08T04:39:01;9.60;99.90
1778;DHT22;886;50.082;8.222;2023-01-08T04:41:29;9.60;99.90
1778;DHT22;886;50.082;8.222;2023-01-08T04:43:58;9.60;99.90
1778;DHT22;886;50.082;8.222;2023-01-08T04:46:35;9.60;99.90
1778;DHT22;886;50.082;8.222;2023-01-08T04:49:06;9.60;99.90
1778;DHT22;886;50.082;8.222;2023-01-08T04:51:33;9.70;99.90
1778;DHT22;886;50.082;8.222;2023-01-08T04:54:00;9.70;99.90
1778;DHT22;886;50.082;8.222;2023-01-08T04:56:35;9.70;99.90
1778;DHT22;886;50.082;8.222;2023-01-08T04:59:02;9.80;99.90
1778;DHT22;886;50.082;8.222;2023-01-08T05:01:29;9.70;99.90
1778;DHT22;886;50.082;8.222;2023-01-08T05:04:04;9.80;99.90
1778;DHT22;886;50.082;8.222;2023-01-08T05:06:31;9.80;99.90
1778;DHT22;886;50.082;8.222;2023-01-08T05:08:59;9.80;99.90
1778;DHT22;886;50.082;8.222;2023-01-08T05:11:31;9.80;99.90
1778;DHT22;886;50.082;8.222;2023-01-08T05:14:01;9.70;99.90
1778;DHT22;886;50.082;8.222;2023-01-08T05:16:42;9.70;99.90
1778;DHT22;886;50.082;8.222;2023-01-08T05:19:13;9.80;99.90
1778;DHT22;886;50.082;8.222;2023-01-08T05:21:40;9.80;99.90
1778;DHT22;886;50.082;8.222;2023-01-08T05:24:08;9.70;99.90
1778;DHT22;886;50.082;8.222;2023-01-08T05:26:35;9.80;99.90
1778;DHT22;886;50.082;8.222;2023-01-08T05:29:02;9.70;99.90
1778;DHT22;886;50.082;8.222;2023-01-08T05:31:29;9.70;99.90
1778;DHT22;886;50.082;8.222;2023-01-08T05:33:57;9.80;99.90
1778;DHT22;886;50.082;8.222;2023-01-08T05:36:26;9.80;99.90
1778;DHT22;886;50.082;8.222;2023-01-08T05:38:56;9.80;99.90
1778;DHT22;886;50.082;8.222;2023-01-08T05:41:23;9.80;99.90
1778;DHT22;886;50.082;8.222;2023-01-08T05:43:53;9.70;99.90
1778;DHT22;886;50.082;8.222;2023-01-08T05:46:22;9.80;99.90
1778;DHT22;886;50.082;8.222;2023-01-08T05:48:49;9.80;99.90
1778;DHT22;886;50.082;8.222;2023-01-08T05:51:19;9.80;99.90
1778;DHT22;886;50.082;8.222;2023-01-08T05:53:47;9.80;99.90
1778;DHT22;886;50.082;8.222;2023-01-08T05:56:14;9.80;99.90
1778;DHT22;886;50.082;8.222;2023-01-08T05:58:41;9.80;99.90
1778;DHT22;886;50.082;8.222;2023-01-08T06:01:11;9.80;99.90
1778;DHT22;886;50.082;8.222;2023-01-08T06:03:44;9.80;99.90
1778;DHT22;886;50.082;8.222;2023-01-08T06:06:11;9.90;99.90
1778;DHT22;886;50.082;8.222;2023-01-08T06:08:42;9.90;99.90
1778;DHT22;886;50.082;8.222;2023-01-08T06:11:14;9.90;99.90
1778;DHT22;886;50.082;8.222;2023-01-08T06:13:42;9.90;99.90
1778;DHT22;886;50.082;8.222;2023-01-08T06:16:13;9.90;99.90
1778;DHT22;886;50.082;8.222;2023-01-08T06:18:40;9.90;99.90
1778;DHT22;886;50.082;8.222;2023-01-08T06:21:07;9.90;99.90
1778;DHT22;886;50.082;8.222;2023-01-08T06:23:35;9.90;99.90
1778;DHT22;886;50.082;8.222;2023-01-08T06:26:02;9.90;99.90
1778;DHT22;886;50.082;8.222;2023-01-08T06:28:32;10.00;99.90
1778;DHT22;886;50.082;8.222;2023-01-08T06:31:00;10.00;99.90
1778;DHT22;886;50.082;8.222;2023-01-08T06:33:46;9.90;99.90
1778;DHT22;886;50.082;8.222;2023-01-08T06:36:13;9.90;99.90
1778;DHT22;886;50.082;8.222;2023-01-08T06:38:43;10.00;99.90
1778;DHT22;886;50.082;8.222;2023-01-08T06:41:17;10.00;99.90
1778;DHT22;886;50.082;8.222;2023-01-08T06:43:45;10.00;99.90
1778;DHT22;886;50.082;8.222;2023-01-08T06:46:19;10.00;99.90
1778;DHT22;886;50.082;8.222;2023-01-08T06:48:50;10.00;99.90
1778;DHT22;886;50.082;8.222;2023-01-08T06:51:17;10.00;99.90
1778;DHT22;886;50.082;8.222;2023-01-08T06:53:46;10.00;99.90
1778;DHT22;886;50.082;8.222;2023-01-08T06:56:13;10.00;99.90
1778;DHT22;886;50.082;8.222;2023-01-08T06:58:41;10.00;99.90
1778;DHT22;886;50.082;8.222;2023-01-08T07:01:13;10.00;99.90
1778;DHT22;886;50.082;8.222;2023-01-08T07:03:42;10.00;99.90
1778;DHT22;886;50.082;8.222;2023-01-08T07:06:14;10.10;99.90
1778;DHT22;886;50.082;8.222;2023-01-08T07:08:42;10.10;99.90
1778;DHT22;886;50.082;8.222;2023-01-08T07:11:10;10.00;99.90
1778;DHT22;886;50.082;8.222;2023-01-08T07:13:38;9.90;99.90
1778;DHT22;886;50.082;8.222;2023-01-08T07:16:06;10.00;99.90
1778;DHT22;886;50.082;8.222;2023-01-08T07:18:36;10.00;99.90
1778;DHT22;886;50.082;8.222;2023-01-08T07:21:04;10.00;99.90
1778;DHT22;886;50.082;8.222;2023-01-08T07:23:35;10.00;99.90
1778;DHT22;886;50.082;8.222;2023-01-08T07:26:05;9.90;99.90
1778;DHT22;886;50.082;8.222;2023-01-08T07:28:35;9.90;99.90
1778;DHT22;886;50.082;8.222;2023-01-08T07:31:06;9.90;99.90
1778;DHT22;886;50.082;8.222;2023-01-08T07:33:35;9.90;99.90
1778;DHT22;886;50.082;8.222;2023-01-08T07:36:03;9.90;99.90
1778;DHT22;886;50.082;8.222;2023-01-08T07:38:31;9.90;99.90
1778;DHT22;886;50.082;8.222;2023-01-08T07:40:59;9.90;99.90
1778;DHT22;886;50.082;8.222;2023-01-08T07:43:29;9.90;99.90
1778;DHT22;886;50.082;8.222;2023-01-08T07:45:57;10.00;99.90
1778;DHT22;886;50.082;8.222;2023-01-08T07:48:24;9.90;99.90
1778;DHT22;886;50.082;8.222;2023-01-08T07:50:53;9.90;99.90
1778;DHT22;886;50.082;8.222;2023-01-08T07:53:20;9.90;99.90
1778;DHT22;886;50.082;8.222;2023-01-08T07:55:59;9.80;99.90
1778;DHT22;886;50.082;8.222;2023-01-08T07:58:26;9.90;99.90
1778;DHT22;886;50.082;8.222;2023-01-08T08:00:54;9.90;99.90
1778;DHT22;886;50.082;8.222;2023-01-08T08:03:25;9.90;99.90
1778;DHT22;886;50.082;8.222;2023-01-08T08:05:54;9.90;99.90
1778;DHT22;886;50.082;8.222;2023-01-08T08:08:21;9.90;99.90
1778;DHT22;886;50.082;8.222;2023-01-08T08:10:50;9.90;99.90
1778;DHT22;886;50.082;8.222;2023-01-08T08:13:18;9.90;99.90
1778;DHT22;886;50.082;8.222;2023-01-08T08:15:45;10.00;99.90
1778;DHT22;886;50.082;8.222;2023-01-08T08:18:15;10.00;99.90
1778;DHT22;886;50.082;8.222;2023-01-08T08:20:42;10.00;99.90
1778;DHT22;886;50.082;8.222;2023-01-08T08:23:13;10.00;99.90
1778;DHT22;886;50.082;8.222;2023-01-08T08:25:41;10.00;99.90
1778;DHT22;886;50.082;8.222;2023-01-08T08:28:12;10.00;99.90
1778;DHT22;886;50.082;8.222;2023-01-08T08:30:39;10.00;99.90
1778;DHT22;886;50.082;8.222;2023-01-08T08:33:08;9.90;99.90
1778;DHT22;886;50.082;8.222;2023-01-08T08:35:37;10.00;99.90
1778;DHT22;886;50.082;8.222;2023-01-08T08:38:04;9.90;99.90
1778;DHT22;886;50.082;8.222;2023-01-08T08:40:33;9.90;99.90
1778;DHT22;886;50.082;8.222;2023-01-08T08:43:01;10.00;99.90
1778;DHT22;886;50.082;8.222;2023-01-08T08:45:30;9.90;99.90
1778;DHT22;886;50.082;8.222;2023-01-08T08:48:00;10.00;99.90
1778;DHT22;886;50.082;8.222;2023-01-08T08:50:33;10.00;99.90
1778;DHT22;886;50.082;8.222;2023-01-08T08:53:02;9.90;99.90
1778;DHT22;886;50.082;8.222;2023-01-08T08:55:32;9.80;99.90
1778;DHT22;886;50.082;8.222;2023-01-08T08:58:04;9.90;99.90
1778;DHT22;886;50.082;8.222;2023-01-08T09:00:36;9.90;99.90
1778;DHT22;886;50.082;8.222;2023-01-08T09:03:03;10.00;99.90
1778;DHT22;886;50.082;8.222;2023-01-08T09:05:37;10.00;99.90
1778;DHT22;886;50.082;8.222;2023-01-08T09:08:05;10.10;99.90
1778;DHT22;886;50.082;8.222;2023-01-08T09:10:35;10.00;99.90
1778;DHT22;886;50.082;8.222;2023-01-08T09:13:03;10.00;99.90
1778;DHT22;886;50.082;8.222;2023-01-08T09:15:30;9.90;99.90
1778;DHT22;886;50.082;8.222;2023-01-08T09:17:57;9.90;99.90
1778;DHT22;886;50.082;8.222;2023-01-08T09:20:25;10.00;99.90
1778;DHT22;886;50.082;8.222;2023-01-08T09:22:53;10.00;99.90
1778;DHT22;886;50.082;8.222;2023-01-08T09:25:23;10.00;99.90
1778;DHT22;886;50.082;8.222;2023-01-08T09:27:59;10.00;99.90
1778;DHT22;886;50.082;8.222;2023-01-08T09:30:29;10.00;99.90
1778;DHT22;886;50.082;8.222;2023-01-08T09:32:58;10.10;99.90
1778;DHT22;886;50.082;8.222;2023-01-08T09:35:29;10.10;99.90
1778;DHT22;886;50.082;8.222;2023-01-08T09:37:59;10.10;99.90
1778;DHT22;886;50.082;8.222;2023-01-08T09:40:30;10.00;99.90
1778;DHT22;886;50.082;8.222;2023-01-08T09:43:02;10.00;99.90
1778;DHT22;886;50.082;8.222;2023-01-08T09:45:31;10.10;99.90
1778;DHT22;886;50.082;8.222;2023-01-08T09:48:11;10.10;99.90
1778;DHT22;886;50.082;8.222;2023-01-08T09:50:40;10.10;99.90
1778;DHT22;886;50.082;8.222;2023-01-08T09:53:12;10.10;99.90
1778;DHT22;886;50.082;8.222;2023-01-08T09:55:42;10.10;99.90
1778;DHT22;886;50.082;8.222;2023-01-08T09:58:22;10.00;99.90
1778;DHT22;886;50.082;8.222;2023-01-08T10:00:53;10.10;99.90
1778;DHT22;886;50.082;8.222;2023-01-08T10:03:24;10.10;99.90
1778;DHT22;886;50.082;8.222;2023-01-08T10:05:56;10.10;99.90
1778;DHT22;886;50.082;8.222;2023-01-08T10:08:23;10.10;99.90
1778;DHT22;886;50.082;8.222;2023-01-08T10:10:50;10.10;99.90
1778;DHT22;886;50.082;8.222;2023-01-08T10:13:20;10.20;99.90
1778;DHT22;886;50.082;8.222;2023-01-08T10:15:50;10.20;99.90
1778;DHT22;886;50.082;8.222;2023-01-08T10:18:18;10.20;99.90
1778;DHT22;886;50.082;8.222;2023-01-08T10:20:49;10.20;99.90
1778;DHT22;886;50.082;8.222;2023-01-08T10:23:18;10.20;99.90
1778;DHT22;886;50.082;8.222;2023-01-08T10:25:49;10.10;99.90
1778;DHT22;886;50.082;8.222;2023-01-08T10:28:21;10.20;99.90
1778;DHT22;886;50.082;8.222;2023-01-08T10:30:50;10.20;99.90
1778;DHT22;886;50.082;8.222;2023-01-08T10:33:22;10.20;99.90
1778;DHT22;886;50.082;8.222;2023-01-08T10:35:56;10.20;99.90
1778;DHT22;886;50.082;8.222;2023-01-08T10:38:28;10.20;99.90
1778;DHT22;886;50.082;8.222;2023-01-08T10:41:00;10.20;99.90
1778;DHT22;886;50.082;8.222;2023-01-08T10:43:34;10.20;99.90
1778;DHT22;886;50.082;8.222;2023-01-08T10:46:05;10.20;99.90
1778;DHT22;886;50.082;8.222;2023-01-08T10:48:37;10.20;99.90
1778;DHT22;886;50.082;8.222;2023-01-08T10:51:12;10.20;99.90
1778;DHT22;886;50.082;8.222;2023-01-08T10:53:42;10.30;99.90
1778;DHT22;886;50.082;8.222;2023-01-08T10:56:21;10.30;99.90
1778;DHT22;886;50.082;8.222;2023-01-08T10:58:51;10.30;99.90
1778;DHT22;886;50.082;8.222;2023-01-08T11:01:23;10.30;99.90
1778;DHT22;886;50.082;8.222;2023-01-08T11:04:02;10.30;99.90
1778;DHT22;886;50.082;8.222;2023-01-08T11:06:42;10.40;99.90
1778;DHT22;886;50.082;8.222;2023-01-08T11:09:18;10.40;99.90
1778;DHT22;886;50.082;8.222;2023-01-08T11:11:49;10.40;99.90
1778;DHT22;886;50.082;8.222;2023-01-08T11:14:28;10.40;99.90
1778;DHT22;886;50.082;8.222;2023-01-08T11:16:57;10.50;99.90
1778;DHT22;886;50.082;8.222;2023-01-08T11:19:26;10.50;99.90
1778;DHT22;886;50.082;8.222;2023-01-08T11:22:00;10.50;99.90
1778;DHT22;886;50.082;8.222;2023-01-08T11:24:33;10.50;99.90
1778;DHT22;886;50.082;8.222;2023-01-08T11:27:04;10.50;99.90
1778;DHT22;886;50.082;8.222;2023-01-08T11:29:42;10.60;99.90
1778;DHT22;886;50.082;8.222;2023-01-08T11:32:24;10.60;99.90
1778;DHT22;886;50.082;8.222;2023-01-08T11:35:03;10.50;99.90
1778;DHT22;886;50.082;8.222;2023-01-08T11:37:45;10.50;99.90
1778;DHT22;886;50.082;8.222;2023-01-08T11:40:32;10.50;99.90
1778;DHT22;886;50.082;8.222;2023-01-08T11:43:24;10.50;99.90
1778;DHT22;886;50.082;8.222;2023-01-08T11:46:12;10.60;99.90
1778;DHT22;886;50.082;8.222;2023-01-08T11:48:56;10.50;99.90
1778;DHT22;886;50.082;8.222;2023-01-08T11:52:05;10.60;99.90
1778;DHT22;886;50.082;8.222;2023-01-08T11:54:59;10.60;99.90
1778;DHT22;886;50.082;8.222;2023-01-08T11:57:42;10.50;99.90
1778;DHT22;886;50.082;8.222;2023-01-08T12:00:37;10.50;99.90
1778;DHT22;886;50.082;8.222;2023-01-08T12:03:28;10.50;99.90
1778;DHT22;886;50.082;8.222;2023-01-08T12:06:07;10.50;99.90
1778;DHT22;886;50.082;8.222;2023-01-08T12:08:44;10.50;99.90
1778;DHT22;886;50.082;8.222;2023-01-08T12:11:23;10.40;99.90
1778;DHT22;886;50.082;8.222;2023-01-08T12:14:12;10.40;99.90
1778;DHT22;886;50.082;8.222;2023-01-08T12:17:08;10.50;99.90
1778;DHT22;886;50.082;8.222;2023-01-08T12:19:55;10.50;99.90
1778;DHT22;886;50.082;8.222;2023-01-08T12:22:48;10.50;99.90
1778;DHT22;886;50.082;8.222;2023-01-08T12:25:34;10.50;99.90
1778;DHT22;886;50.082;8.222;2023-01-08T12:28:21;10.50;99.90
1778;DHT22;886;50.082;8.222;2023-01-08T12:31:16;10.60;99.90
1778;DHT22;886;50.082;8.222;2023-01-08T12:33:57;10.50;99.90
1778;DHT22;886;50.082;8.222;2023-01-08T12:36:35;10.60;99.90
1778;DHT22;886;50.082;8.222;2023-01-08T12:39:09;10.60;99.90
1778;DHT22;886;50.082;8.222;2023-01-08T12:41:40;10.50;99.90
1778;DHT22;886;50.082;8.222;2023-01-08T12:44:10;10.60;99.90
1778;DHT22;886;50.082;8.222;2023-01-08T12:46:43;10.50;99.90
1778;DHT22;886;50.082;8.222;2023-01-08T12:49:14;10.60;99.90
1778;DHT22;886;50.082;8.222;2023-01-08T12:51:53;10.60;99.90
1778;DHT22;886;50.082;8.222;2023-01-08T12:54:29;10.60;99.90
1778;DHT22;886;50.082;8.222;2023-01-08T12:57:08;10.60;99.90
1778;DHT22;886;50.082;8.222;2023-01-08T12:59:44;10.50;99.90
1778;DHT22;886;50.082;8.222;2023-01-08T13:02:23;10.50;99.90
1778;DHT22;886;50.082;8.222;2023-01-08T13:05:10;10.50;99.90
1778;DHT22;886;50.082;8.222;2023-01-08T13:07:45;10.50;99.90
1778;DHT22;886;50.082;8.222;2023-01-08T13:10:27;10.50;99.90
1778;DHT22;886;50.082;8.222;2023-01-08T13:13:24;10.60;99.90
1778;DHT22;886;50.082;8.222;2023-01-08T13:16:16;10.60;99.90
1778;DHT22;886;50.082;8.222;2023-01-08T13:18:55;10.60;99.90
1778;DHT22;886;50.082;8.222;2023-01-08T13:21:35;10.60;99.90
1778;DHT22;886;50.082;8.222;2023-01-08T13:24:20;10.60;99.90
1778;DHT22;886;50.082;8.222;2023-01-08T13:26:53;10.50;99.90
1778;DHT22;886;50.082;8.222;2023-01-08T13:29:38;10.60;99.90
1778;DHT22;886;50.082;8.222;2023-01-08T13:32:24;10.60;99.90
1778;DHT22;886;50.082;8.222;2023-01-08T13:35:02;10.60;99.90
1778;DHT22;886;50.082;8.222;2023-01-08T13:37:46;10.60;99.90
1778;DHT22;886;50.082;8.222;2023-01-08T13:40:54;10.70;99.90
1778;DHT22;886;50.082;8.222;2023-01-08T13:43:26;10.70;99.90
1778;DHT22;886;50.082;8.222;2023-01-08T13:46:06;10.70;99.90
1778;DHT22;886;50.082;8.222;2023-01-08T13:48:47;10.70;99.90
1778;DHT22;886;50.082;8.222;2023-01-08T13:54:35;10.70;99.90
1778;DHT22;886;50.082;8.222;2023-01-08T13:57:12;10.70;99.90
1778;DHT22;886;50.082;8.222;2023-01-08T13:59:48;10.90;99.90
1778;DHT22;886;50.082;8.222;2023-01-08T14:02:28;11.00;99.90
1778;DHT22;886;50.082;8.222;2023-01-08T14:04:58;10.90;99.90
1778;DHT22;886;50.082;8.222;2023-01-08T14:07:27;10.80;99.90
1778;DHT22;886;50.082;8.222;2023-01-08T14:10:05;10.80;99.90
1778;DHT22;886;50.082;8.222;2023-01-08T14:12:48;10.80;99.90
1778;DHT22;886;50.082;8.222;2023-01-08T14:15:24;10.80;99.90
1778;DHT22;886;50.082;8.222;2023-01-08T14:17:56;10.70;99.90
1778;DHT22;886;50.082;8.222;2023-01-08T14:20:32;10.70;99.90
1778;DHT22;886;50.082;8.222;2023-01-08T14:23:02;10.80;99.90
1778;DHT22;886;50.082;8.222;2023-01-08T14:25:39;10.80;99.90
1778;DHT22;886;50.082;8.222;2023-01-08T14:28:16;10.80;99.90
1778;DHT22;886;50.082;8.222;2023-01-08T14:30:49;10.90;99.90
1778;DHT22;886;50.082;8.222;2023-01-08T14:33:25;10.90;99.90
1778;DHT22;886;50.082;8.222;2023-01-08T14:36:00;10.80;99.90
1778;DHT22;886;50.082;8.222;2023-01-08T14:38:28;10.90;99.90
1778;DHT22;886;50.082;8.222;2023-01-08T14:40:59;10.90;99.90
1778;DHT22;886;50.082;8.222;2023-01-08T14:43:37;10.90;99.90
1778;DHT22;886;50.082;8.222;2023-01-08T14:46:14;10.90;99.90
1778;DHT22;886;50.082;8.222;2023-01-08T14:48:45;10.90;99.90
1778;DHT22;886;50.082;8.222;2023-01-08T14:51:14;10.90;99.90
1778;DHT22;886;50.082;8.222;2023-01-08T14:53:49;10.90;99.90
1778;DHT22;886;50.082;8.222;2023-01-08T14:56:19;10.90;99.90
1778;DHT22;886;50.082;8.222;2023-01-08T14:58:50;10.90;99.90
1778;DHT22;886;50.082;8.222;2023-01-08T15:01:18;10.90;99.90
1778;DHT22;886;50.082;8.222;2023-01-08T15:03:47;10.90;99.90
1778;DHT22;886;50.082;8.222;2023-01-08T15:06:26;10.90;99.90
1778;DHT22;886;50.082;8.222;2023-01-08T15:08:55;10.90;99.90
1778;DHT22;886;50.082;8.222;2023-01-08T15:11:25;10.90;99.90
1778;DHT22;886;50.082;8.222;2023-01-08T15:14:11;10.80;99.90
1778;DHT22;886;50.082;8.222;2023-01-08T15:16:40;10.80;99.90
1778;DHT22;886;50.082;8.222;2023-01-08T15:19:13;10.90;99.90
1778;DHT22;886;50.082;8.222;2023-01-08T15:21:45;10.80;99.90
1778;DHT22;886;50.082;8.222;2023-01-08T15:24:21;10.80;99.90
1778;DHT22;886;50.082;8.222;2023-01-08T15:26:49;10.80;99.90
1778;DHT22;886;50.082;8.222;2023-01-08T15:29:22;10.80;99.90
1778;DHT22;886;50.082;8.222;2023-01-08T15:31:52;10.80;99.90
1778;DHT22;886;50.082;8.222;2023-01-08T15:34:20;10.80;99.90
1778;DHT22;886;50.082;8.222;2023-01-08T15:36:47;10.80;99.90
1778;DHT22;886;50.082;8.222;2023-01-08T15:39:15;10.80;99.90
1778;DHT22;886;50.082;8.222;2023-01-08T15:41:42;10.80;99.90
1778;DHT22;886;50.082;8.222;2023-01-08T15:44:31;10.70;99.90
1778;DHT22;886;50.082;8.222;2023-01-08T15:46:59;10.70;99.90
1778;DHT22;886;50.082;8.222;2023-01-08T15:49:29;10.80;99.90
1778;DHT22;886;50.082;8.222;2023-01-08T15:51:59;10.70;99.90
1778;DHT22;886;50.082;8.222;2023-01-08T15:54:30;10.70;99.90
1778;DHT22;886;50.082;8.222;2023-01-08T15:56:57;10.70;99.90
1778;DHT22;886;50.082;8.222;2023-01-08T15:59:26;10.70;99.90
1778;DHT22;886;50.082;8.222;2023-01-08T16:01:55;10.70;99.90
1778;DHT22;886;50.082;8.222;2023-01-08T16:04:25;10.70;99.90
1778;DHT22;886;50.082;8.222;2023-01-08T16:06:52;10.70;99.90
1778;DHT22;886;50.082;8.222;2023-01-08T16:09:20;10.70;99.90
1778;DHT22;886;50.082;8.222;2023-01-08T16:11:49;10.70;99.90
1778;DHT22;886;50.082;8.222;2023-01-08T16:14:22;10.60;99.90
1778;DHT22;886;50.082;8.222;2023-01-08T16:16:50;10.70;99.90
1778;DHT22;886;50.082;8.222;2023-01-08T16:19:18;10.70;99.90
1778;DHT22;886;50.082;8.222;2023-01-08T16:21:45;10.70;99.90
1778;DHT22;886;50.082;8.222;2023-01-08T16:24:13;10.70;99.90
1778;DHT22;886;50.082;8.222;2023-01-08T16:26:41;10.70;99.90
1778;DHT22;886;50.082;8.222;2023-01-08T16:29:11;10.60;99.90
1778;DHT22;886;50.082;8.222;2023-01-08T16:31:43;10.60;99.90
1778;DHT22;886;50.082;8.222;2023-01-08T16:34:13;10.60;99.90
1778;DHT22;886;50.082;8.222;2023-01-08T16:36:44;10.60;99.90
1778;DHT22;886;50.082;8.222;2023-01-08T16:39:21;10.60;99.90
1778;DHT22;886;50.082;8.222;2023-01-08T16:41:49;10.60;99.90
1778;DHT22;886;50.082;8.222;2023-01-08T16:44:23;10.50;99.90
1778;DHT22;886;50.082;8.222;2023-01-08T16:46:55;10.50;99.90
1778;DHT22;886;50.082;8.222;2023-01-08T16:49:24;10.50;99.90
1778;DHT22;886;50.082;8.222;2023-01-08T16:51:54;10.60;99.90
1778;DHT22;886;50.082;8.222;2023-01-08T16:54:21;10.50;99.90
1778;DHT22;886;50.082;8.222;2023-01-08T16:56:51;10.50;99.90
1778;DHT22;886;50.082;8.222;2023-01-08T16:59:21;10.50;99.90
1778;DHT22;886;50.082;8.222;2023-01-08T17:01:50;10.50;99.90
1778;DHT22;886;50.082;8.222;2023-01-08T17:04:18;10.50;99.90
1778;DHT22;886;50.082;8.222;2023-01-08T17:06:48;10.50;99.90